sensor_id;sensor_type;location;lat;lon;timestamp;pressure;altitude;pressure_sealevel;temperature;humidity
42125;BME280;27787;44.594;11.046;2022-10-16T00:02:11;101436.88;;;18.74;79.15
42125;BME280;27787;44.594;11.046;2022-10-16T00:04:55;101432.41;;;18.76;78.73
42125;BME280;27787;44.594;11.046;2022-10-16T00:07:39;101434.19;;;18.77;78.67
42125;BME280;27787;44.594;11.046;2022-10-16T00:10:23;101435.03;;;18.79;78.46
42125;BME280;27787;44.594;11.046;2022-10-16T00:13:07;101434.16;;;18.79;78.82
42125;BME280;27787;44.594;11.046;2022-10-16T00:15:54;101429.75;;;18.73;79.69
42125;BME280;27787;44.594;11.046;2022-10-16T00:18:39;101430.69;;;18.72;80.14
42125;BME280;27787;44.594;11.046;2022-10-16T00:21:26;101433.38;;;18.71;79.54
42125;BME280;27787;44.594;11.046;2022-10-16T00:24:10;101437.00;;;18.68;79.42
42125;BME280;27787;44.594;11.046;2022-10-16T00:26:55;101437.94;;;18.63;80.22
42125;BME280;27787;44.594;11.046;2022-10-16T00:29:38;101430.00;;;18.56;80.33
42125;BME280;27787;44.594;11.046;2022-10-16T00:32:23;101441.69;;;18.51;80.48
42125;BME280;27787;44.594;11.046;2022-10-16T00:35:07;101454.22;;;18.46;81.03
42125;BME280;27787;44.594;11.046;2022-10-16T00:37:52;101440.88;;;18.44;81.46
42125;BME280;27787;44.594;11.046;2022-10-16T00:40:36;101446.25;;;18.41;82.24
42125;BME280;27787;44.594;11.046;2022-10-16T00:46:46;101439.22;;;18.37;82.77
42125;BME280;27787;44.594;11.046;2022-10-16T00:49:29;101436.56;;;18.34;82.59
42125;BME280;27787;44.594;11.046;2022-10-16T00:52:14;101443.75;;;18.29;82.66
42125;BME280;27787;44.594;11.046;2022-10-16T00:55:00;101446.47;;;18.26;82.55
42125;BME280;27787;44.594;11.046;2022-10-16T00:57:45;101454.53;;;18.21;82.43
42125;BME280;27787;44.594;11.046;2022-10-16T01:00:30;101457.28;;;18.17;83.26
42125;BME280;27787;44.594;11.046;2022-10-16T01:06:32;101457.22;;;18.21;83.11
42125;BME280;27787;44.594;11.046;2022-10-16T01:09:22;101454.53;;;18.21;81.92
42125;BME280;27787;44.594;11.046;2022-10-16T01:12:37;101452.75;;;18.22;81.19
42125;BME280;27787;44.594;11.046;2022-10-16T01:18:54;101459.06;;;18.18;81.20
42125;BME280;27787;44.594;11.046;2022-10-16T01:21:43;101465.28;;;18.18;81.18
42125;BME280;27787;44.594;11.046;2022-10-16T01:24:40;101467.03;;;18.19;80.42
42125;BME280;27787;44.594;11.046;2022-10-16T01:27:27;101465.25;;;18.20;79.98
42125;BME280;27787;44.594;11.046;2022-10-16T01:30:21;101471.47;;;18.22;80.22
42125;BME280;27787;44.594;11.046;2022-10-16T01:33:16;101472.38;;;18.19;80.44
42125;BME280;27787;44.594;11.046;2022-10-16T01:36:11;101467.13;;;18.13;81.63
42125;BME280;27787;44.594;11.046;2022-10-16T01:38:59;101464.53;;;18.06;82.03
42125;BME280;27787;44.594;11.046;2022-10-16T01:41:48;101469.06;;;18.01;82.82
42125;BME280;27787;44.594;11.046;2022-10-16T01:44:37;101463.78;;;17.94;83.38
42125;BME280;27787;44.594;11.046;2022-10-16T01:47:25;101468.25;;;17.94;83.81
42125;BME280;27787;44.594;11.046;2022-10-16T01:50:10;101466.47;;;17.94;83.46
42125;BME280;27787;44.594;11.046;2022-10-16T01:52:57;101465.56;;;17.95;83.33
42125;BME280;27787;44.594;11.046;2022-10-16T01:55:46;101468.22;;;17.95;83.73
42125;BME280;27787;44.594;11.046;2022-10-16T01:58:34;101466.44;;;17.97;83.06
42125;BME280;27787;44.594;11.046;2022-10-16T02:01:23;101470.88;;;17.98;82.94
42125;BME280;27787;44.594;11.046;2022-10-16T02:04:13;101464.66;;;17.98;83.32
42125;BME280;27787;44.594;11.046;2022-10-16T02:07:00;101467.31;;;18.00;82.75
42125;BME280;27787;44.594;11.046;2022-10-16T02:09:45;101469.03;;;18.04;82.19
42125;BME280;27787;44.594;11.046;2022-10-16T02:12:31;101465.44;;;18.05;81.96
42125;BME280;27787;44.594;11.046;2022-10-16T02:15:17;101469.88;;;18.06;82.58
42125;BME280;27787;44.594;11.046;2022-10-16T02:18:03;101461.06;;;17.99;82.87
42125;BME280;27787;44.594;11.046;2022-10-16T02:20:53;101466.44;;;17.99;83.17
42125;BME280;27787;44.594;11.046;2022-10-16T02:23:42;101459.28;;;18.00;82.86
42125;BME280;27787;44.594;11.046;2022-10-16T02:26:45;101464.72;;;17.92;83.29
42125;BME280;27787;44.594;11.046;2022-10-16T02:29:35;101456.69;;;17.92;83.88
42125;BME280;27787;44.594;11.046;2022-10-16T02:32:24;101458.53;;;17.88;83.06
42125;BME280;27787;44.594;11.046;2022-10-16T02:35:18;101468.41;;;17.80;83.45
42125;BME280;27787;44.594;11.046;2022-10-16T02:38:05;101471.97;;;17.79;83.85
42125;BME280;27787;44.594;11.046;2022-10-16T02:40:49;101465.72;;;17.82;83.24
42125;BME280;27787;44.594;11.046;2022-10-16T02:43:34;101471.06;;;17.80;83.37
42125;BME280;27787;44.594;11.046;2022-10-16T02:46:18;101478.31;;;17.72;83.22
42125;BME280;27787;44.594;11.046;2022-10-16T02:49:03;101481.03;;;17.61;84.15
42125;BME280;27787;44.594;11.046;2022-10-16T02:51:47;101493.59;;;17.52;85.14
42125;BME280;27787;44.594;11.046;2022-10-16T02:54:31;101482.91;;;17.52;85.16
42125;BME280;27787;44.594;11.046;2022-10-16T02:57:15;101487.31;;;17.56;84.73
42125;BME280;27787;44.594;11.046;2022-10-16T02:59:59;101489.06;;;17.60;84.34
42125;BME280;27787;44.594;11.046;2022-10-16T03:02:44;101489.91;;;17.65;83.96
42125;BME280;27787;44.594;11.046;2022-10-16T03:05:28;101491.69;;;17.64;83.21
42125;BME280;27787;44.594;11.046;2022-10-16T03:08:12;101488.13;;;17.65;83.23
42125;BME280;27787;44.594;11.046;2022-10-16T03:10:57;101489.03;;;17.63;83.04
42125;BME280;27787;44.594;11.046;2022-10-16T03:13:41;101487.34;;;17.53;83.34
42125;BME280;27787;44.594;11.046;2022-10-16T03:16:25;101484.75;;;17.47;83.80
42125;BME280;27787;44.594;11.046;2022-10-16T03:19:09;101487.53;;;17.34;84.60
42125;BME280;27787;44.594;11.046;2022-10-16T03:21:54;101489.38;;;17.26;85.05
42125;BME280;27787;44.594;11.046;2022-10-16T03:24:37;101488.50;;;17.24;85.17
42125;BME280;27787;44.594;11.046;2022-10-16T03:27:22;101487.59;;;17.25;85.25
42125;BME280;27787;44.594;11.046;2022-10-16T03:30:06;101486.72;;;17.25;84.96
42125;BME280;27787;44.594;11.046;2022-10-16T03:32:51;101489.38;;;17.25;85.06
42125;BME280;27787;44.594;11.046;2022-10-16T03:35:38;101487.59;;;17.27;84.48
42125;BME280;27787;44.594;11.046;2022-10-16T03:38:22;101484.91;;;17.28;84.55
42125;BME280;27787;44.594;11.046;2022-10-16T03:41:06;101491.09;;;17.30;83.86
42125;BME280;27787;44.594;11.046;2022-10-16T03:43:51;101489.34;;;17.29;83.82
42125;BME280;27787;44.594;11.046;2022-10-16T03:46:35;101492.91;;;17.27;84.01
42125;BME280;27787;44.594;11.046;2022-10-16T03:49:19;101504.50;;;17.24;83.60
42125;BME280;27787;44.594;11.046;2022-10-16T03:52:03;101509.03;;;17.13;83.95
42125;BME280;27787;44.594;11.046;2022-10-16T03:54:47;101502.00;;;17.01;84.85
42125;BME280;27787;44.594;11.046;2022-10-16T03:57:31;101505.59;;;16.99;85.53
42125;BME280;27787;44.594;11.046;2022-10-16T04:00:16;101501.13;;;17.02;85.33
42125;BME280;27787;44.594;11.046;2022-10-16T04:03:01;101502.00;;;17.06;84.86
42125;BME280;27787;44.594;11.046;2022-10-16T04:05:45;101502.88;;;17.08;84.53
42125;BME280;27787;44.594;11.046;2022-10-16T04:08:29;101509.06;;;17.10;84.40
42125;BME280;27787;44.594;11.046;2022-10-16T04:11:13;101517.09;;;17.05;83.83
42125;BME280;27787;44.594;11.046;2022-10-16T04:13:57;101519.88;;;16.93;84.82
42125;BME280;27787;44.594;11.046;2022-10-16T04:16:42;101517.22;;;16.93;85.67
42125;BME280;27787;44.594;11.046;2022-10-16T04:19:26;101514.50;;;16.98;85.40
42125;BME280;27787;44.594;11.046;2022-10-16T04:22:10;101519.84;;;16.96;84.68
42125;BME280;27787;44.594;11.046;2022-10-16T04:24:54;101517.25;;;16.84;84.64
42125;BME280;27787;44.594;11.046;2022-10-16T04:27:38;101522.66;;;16.72;85.52
42125;BME280;27787;44.594;11.046;2022-10-16T04:30:22;101527.13;;;16.67;86.82
42125;BME280;27787;44.594;11.046;2022-10-16T04:33:08;101532.47;;;16.61;86.49
42125;BME280;27787;44.594;11.046;2022-10-16T04:35:57;101530.72;;;16.55;87.08
42125;BME280;27787;44.594;11.046;2022-10-16T04:38:41;101525.41;;;16.49;87.46
42125;BME280;27787;44.594;11.046;2022-10-16T04:41:26;101530.72;;;16.50;88.32
42125;BME280;27787;44.594;11.046;2022-10-16T04:44:10;101532.47;;;16.53;87.80
42125;BME280;27787;44.594;11.046;2022-10-16T04:46:54;101529.81;;;16.53;87.77
42125;BME280;27787;44.594;11.046;2022-10-16T04:49:38;101523.59;;;16.57;87.46
42125;BME280;27787;44.594;11.046;2022-10-16T04:52:22;101528.94;;;16.51;86.72
42125;BME280;27787;44.594;11.046;2022-10-16T04:55:08;101522.78;;;16.41;87.20
42125;BME280;27787;44.594;11.046;2022-10-16T04:57:53;101527.25;;;16.35;88.01
42125;BME280;27787;44.594;11.046;2022-10-16T05:00:37;101521.06;;;16.31;88.17
42125;BME280;27787;44.594;11.046;2022-10-16T05:03:22;101513.06;;;16.33;88.89
42125;BME280;27787;44.594;11.046;2022-10-16T05:06:06;101521.91;;;16.35;87.74
42125;BME280;27787;44.594;11.046;2022-10-16T05:08:51;101521.94;;;16.26;88.01
42125;BME280;27787;44.594;11.046;2022-10-16T05:11:35;101528.22;;;16.18;88.78
42125;BME280;27787;44.594;11.046;2022-10-16T05:14:19;101527.31;;;16.18;89.20
42125;BME280;27787;44.594;11.046;2022-10-16T05:17:03;101528.19;;;16.21;88.92
42125;BME280;27787;44.594;11.046;2022-10-16T05:19:47;101527.31;;;16.19;88.52
42125;BME280;27787;44.594;11.046;2022-10-16T05:22:31;101529.09;;;16.19;89.19
42125;BME280;27787;44.594;11.046;2022-10-16T05:25:15;101537.09;;;16.17;88.66
42125;BME280;27787;44.594;11.046;2022-10-16T05:27:59;101537.09;;;16.11;88.46
42125;BME280;27787;44.594;11.046;2022-10-16T05:30:43;101548.66;;;16.04;88.97
42125;BME280;27787;44.594;11.046;2022-10-16T05:33:27;101548.66;;;16.01;89.19
42125;BME280;27787;44.594;11.046;2022-10-16T05:36:11;101548.69;;;15.95;89.44
42125;BME280;27787;44.594;11.046;2022-10-16T05:38:56;101555.81;;;15.90;89.54
42125;BME280;27787;44.594;11.046;2022-10-16T05:41:40;101548.69;;;15.84;89.84
42125;BME280;27787;44.594;11.046;2022-10-16T05:44:25;101562.91;;;15.80;90.15
42125;BME280;27787;44.594;11.046;2022-10-16T05:47:09;101561.16;;;15.76;90.82
42125;BME280;27787;44.594;11.046;2022-10-16T05:49:54;101566.47;;;15.73;90.90
42125;BME280;27787;44.594;11.046;2022-10-16T05:52:39;101564.69;;;15.71;91.31
42125;BME280;27787;44.594;11.046;2022-10-16T05:55:23;101569.13;;;15.69;91.38
42125;BME280;27787;44.594;11.046;2022-10-16T05:58:08;101565.59;;;15.68;91.39
42125;BME280;27787;44.594;11.046;2022-10-16T06:00:59;101564.69;;;15.68;91.39
42125;BME280;27787;44.594;11.046;2022-10-16T06:03:43;101570.91;;;15.73;91.42
42125;BME280;27787;44.594;11.046;2022-10-16T06:06:28;101586.00;;;15.80;91.32
42125;BME280;27787;44.594;11.046;2022-10-16T06:09:13;101589.53;;;15.89;90.36
42125;BME280;27787;44.594;11.046;2022-10-16T06:11:57;101593.97;;;15.93;89.51
42125;BME280;27787;44.594;11.046;2022-10-16T06:14:42;101594.81;;;16.00;89.30
42125;BME280;27787;44.594;11.046;2022-10-16T06:17:26;101594.81;;;16.08;88.66
42125;BME280;27787;44.594;11.046;2022-10-16T06:20:11;101597.47;;;16.17;87.99
42125;BME280;27787;44.594;11.046;2022-10-16T06:22:56;101603.69;;;16.17;87.49
42125;BME280;27787;44.594;11.046;2022-10-16T06:25:41;101608.09;;;16.21;87.67
42125;BME280;27787;44.594;11.046;2022-10-16T06:28:25;101614.31;;;16.25;87.35
42125;BME280;27787;44.594;11.046;2022-10-16T06:31:10;101614.34;;;16.20;87.08
42125;BME280;27787;44.594;11.046;2022-10-16T06:33:55;101626.78;;;16.17;87.75
42125;BME280;27787;44.594;11.046;2022-10-16T06:36:40;101626.78;;;16.18;88.42
42125;BME280;27787;44.594;11.046;2022-10-16T06:39:25;101636.50;;;16.26;88.21
42125;BME280;27787;44.594;11.046;2022-10-16T06:42:08;101639.19;;;16.30;87.49
42125;BME280;27787;44.594;11.046;2022-10-16T06:44:53;101648.06;;;16.34;87.68
42125;BME280;27787;44.594;11.046;2022-10-16T06:47:37;101648.03;;;16.40;87.39
42125;BME280;27787;44.594;11.046;2022-10-16T06:50:22;101648.03;;;16.41;87.56
42125;BME280;27787;44.594;11.046;2022-10-16T06:53:06;101657.81;;;16.41;87.37
42125;BME280;27787;44.594;11.046;2022-10-16T06:55:50;101661.38;;;16.43;87.41
42125;BME280;27787;44.594;11.046;2022-10-16T06:58:35;101668.47;;;16.44;87.77
42125;BME280;27787;44.594;11.046;2022-10-16T07:01:21;101670.25;;;16.45;87.89
42125;BME280;27787;44.594;11.046;2022-10-16T07:04:05;101672.00;;;16.47;88.14
42125;BME280;27787;44.594;11.046;2022-10-16T07:06:50;101669.31;;;16.52;88.22
42125;BME280;27787;44.594;11.046;2022-10-16T07:09:35;101671.97;;;16.53;88.03
42125;BME280;27787;44.594;11.046;2022-10-16T07:12:19;101679.06;;;16.61;87.84
42125;BME280;27787;44.594;11.046;2022-10-16T07:15:04;101680.88;;;16.68;87.40
42125;BME280;27787;44.594;11.046;2022-10-16T07:17:48;101691.53;;;16.69;87.20
42125;BME280;27787;44.594;11.046;2022-10-16T07:20:32;101700.41;;;16.74;87.28
42125;BME280;27787;44.594;11.046;2022-10-16T07:23:17;101695.94;;;16.81;87.65
42125;BME280;27787;44.594;11.046;2022-10-16T07:26:01;101697.72;;;16.84;87.55
42125;BME280;27787;44.594;11.046;2022-10-16T07:28:46;101706.59;;;16.87;87.32
42125;BME280;27787;44.594;11.046;2022-10-16T07:31:30;101705.69;;;16.94;87.01
42125;BME280;27787;44.594;11.046;2022-10-16T07:34:16;101705.66;;;16.96;86.84
42125;BME280;27787;44.594;11.046;2022-10-16T07:37:01;101710.09;;;17.00;86.63
42125;BME280;27787;44.594;11.046;2022-10-16T07:39:45;101712.75;;;17.01;86.72
42125;BME280;27787;44.594;11.046;2022-10-16T07:42:30;101715.41;;;17.03;87.25
42125;BME280;27787;44.594;11.046;2022-10-16T07:45:14;101712.75;;;17.06;87.05
42125;BME280;27787;44.594;11.046;2022-10-16T07:47:58;101716.31;;;17.06;87.14
42125;BME280;27787;44.594;11.046;2022-10-16T07:50:42;101717.16;;;17.10;87.18
42125;BME280;27787;44.594;11.046;2022-10-16T07:53:28;101719.78;;;17.16;87.34
42125;BME280;27787;44.594;11.046;2022-10-16T07:56:13;101721.56;;;17.22;86.50
42125;BME280;27787;44.594;11.046;2022-10-16T07:58:57;101718.88;;;17.26;86.22
42125;BME280;27787;44.594;11.046;2022-10-16T08:01:41;101728.63;;;17.35;86.76
42125;BME280;27787;44.594;11.046;2022-10-16T08:04:28;101725.00;;;17.45;85.82
42125;BME280;27787;44.594;11.046;2022-10-16T08:07:12;101730.31;;;17.50;85.73
42125;BME280;27787;44.594;11.046;2022-10-16T08:09:57;101744.50;;;17.55;84.95
42125;BME280;27787;44.594;11.046;2022-10-16T08:12:42;101737.41;;;17.58;84.36
42125;BME280;27787;44.594;11.046;2022-10-16T08:15:27;101740.03;;;17.64;84.07
42125;BME280;27787;44.594;11.046;2022-10-16T08:18:13;101743.59;;;17.71;83.39
42125;BME280;27787;44.594;11.046;2022-10-16T08:20:58;101746.22;;;17.76;83.75
42125;BME280;27787;44.594;11.046;2022-10-16T08:23:44;101746.19;;;17.80;83.41
42125;BME280;27787;44.594;11.046;2022-10-16T08:26:28;101747.06;;;17.85;83.43
42125;BME280;27787;44.594;11.046;2022-10-16T08:29:13;101755.91;;;17.90;83.54
42125;BME280;27787;44.594;11.046;2022-10-16T08:31:58;101750.53;;;17.93;83.60
42125;BME280;27787;44.594;11.046;2022-10-16T08:34:42;101758.53;;;17.98;83.77
42125;BME280;27787;44.594;11.046;2022-10-16T08:37:30;101753.16;;;18.01;83.37
42125;BME280;27787;44.594;11.046;2022-10-16T08:40:29;101764.72;;;18.05;83.78
42125;BME280;27787;44.594;11.046;2022-10-16T08:43:21;101755.75;;;18.09;83.97
42125;BME280;27787;44.594;11.046;2022-10-16T08:49:13;101764.59;;;18.20;83.84
42125;BME280;27787;44.594;11.046;2022-10-16T08:51:58;101765.47;;;18.20;83.52
42125;BME280;27787;44.594;11.046;2022-10-16T08:54:44;101757.44;;;18.23;83.24
42125;BME280;27787;44.594;11.046;2022-10-16T08:57:30;101753.81;;;18.29;83.64
42125;BME280;27787;44.594;11.046;2022-10-16T09:00:16;101754.66;;;18.36;83.84
42125;BME280;27787;44.594;11.046;2022-10-16T09:03:18;101749.28;;;18.40;83.71
42125;BME280;27787;44.594;11.046;2022-10-16T09:06:14;101749.22;;;18.45;83.62
42125;BME280;27787;44.594;11.046;2022-10-16T09:09:11;101750.09;;;18.50;84.10
42125;BME280;27787;44.594;11.046;2022-10-16T09:18:04;101754.41;;;18.60;82.90
42125;BME280;27787;44.594;11.046;2022-10-16T09:21:12;101753.53;;;18.63;82.66
42125;BME280;27787;44.594;11.046;2022-10-16T09:24:27;101753.47;;;18.69;82.82
42125;BME280;27787;44.594;11.046;2022-10-16T09:27:12;101751.63;;;18.74;82.80
42125;BME280;27787;44.594;11.046;2022-10-16T09:29:57;101751.59;;;18.78;82.48
42125;BME280;27787;44.594;11.046;2022-10-16T09:32:43;101749.78;;;18.82;81.92
42125;BME280;27787;44.594;11.046;2022-10-16T09:35:35;101747.91;;;18.87;82.34
42125;BME280;27787;44.594;11.046;2022-10-16T09:38:31;101747.91;;;18.92;82.42
42125;BME280;27787;44.594;11.046;2022-10-16T09:41:19;101751.41;;;18.95;82.06
42125;BME280;27787;44.594;11.046;2022-10-16T09:44:06;101745.13;;;18.99;82.29
42125;BME280;27787;44.594;11.046;2022-10-16T09:47:03;101745.06;;;19.05;81.55
42125;BME280;27787;44.594;11.046;2022-10-16T09:52:35;101751.16;;;19.17;81.96
42125;BME280;27787;44.594;11.046;2022-10-16T09:55:19;101750.16;;;19.25;80.50
42125;BME280;27787;44.594;11.046;2022-10-16T09:58:13;101757.25;;;19.31;79.99
42125;BME280;27787;44.594;11.046;2022-10-16T10:00:57;101741.09;;;19.35;79.91
42125;BME280;27787;44.594;11.046;2022-10-16T10:03:42;101749.06;;;19.41;79.83
42125;BME280;27787;44.594;11.046;2022-10-16T10:06:36;101742.66;;;19.53;80.11
42125;BME280;27787;44.594;11.046;2022-10-16T10:09:39;101742.63;;;19.58;78.98
42125;BME280;27787;44.594;11.046;2022-10-16T10:12:25;101742.59;;;19.59;78.73
42125;BME280;27787;44.594;11.046;2022-10-16T10:15:11;101742.56;;;19.61;78.24
42125;BME280;27787;44.594;11.046;2022-10-16T10:17:57;101739.91;;;19.61;77.99
42125;BME280;27787;44.594;11.046;2022-10-16T10:20:41;101744.28;;;19.68;77.84
42125;BME280;27787;44.594;11.046;2022-10-16T10:23:26;101740.53;;;19.80;76.34
42125;BME280;27787;44.594;11.046;2022-10-16T10:26:24;101741.25;;;19.89;75.79
42125;BME280;27787;44.594;11.046;2022-10-16T10:29:58;101745.66;;;19.92;75.95
42125;BME280;27787;44.594;11.046;2022-10-16T10:32:28;101741.22;;;19.92;75.96
42125;BME280;27787;44.594;11.046;2022-10-16T10:35:31;101744.69;;;19.99;75.22
42125;BME280;27787;44.594;11.046;2022-10-16T10:41:57;101738.22;;;20.12;73.99
42125;BME280;27787;44.594;11.046;2022-10-16T10:51:18;101728.19;;;20.23;74.80
42125;BME280;27787;44.594;11.046;2022-10-16T10:54:20;101726.31;;;20.28;74.14
42125;BME280;27787;44.594;11.046;2022-10-16T11:00:23;101716.41;;;20.33;74.08
42125;BME280;27787;44.594;11.046;2022-10-16T11:06:42;101710.91;;;20.40;73.26
42125;BME280;27787;44.594;11.046;2022-10-16T11:09:33;101716.28;;;20.40;72.58
42125;BME280;27787;44.594;11.046;2022-10-16T11:15:17;101711.69;;;20.48;71.58
42125;BME280;27787;44.594;11.046;2022-10-16T11:18:15;101703.38;;;20.63;68.54
42125;BME280;27787;44.594;11.046;2022-10-16T11:21:05;101709.28;;;20.80;66.97
42125;BME280;27787;44.594;11.046;2022-10-16T11:24:06;101706.50;;;20.86;66.04
42125;BME280;27787;44.594;11.046;2022-10-16T11:27:08;101695.66;;;20.91;66.91
42125;BME280;27787;44.594;11.046;2022-10-16T11:30:02;101692.84;;;20.96;66.82
42125;BME280;27787;44.594;11.046;2022-10-16T11:33:25;101700.66;;;21.08;66.28
42125;BME280;27787;44.594;11.046;2022-10-16T11:39:21;101696.06;;;21.14;65.49
42125;BME280;27787;44.594;11.046;2022-10-16T11:42:11;101696.03;;;21.16;65.99
42125;BME280;27787;44.594;11.046;2022-10-16T11:57:01;101690.41;;;21.28;65.62
42125;BME280;27787;44.594;11.046;2022-10-16T11:59:52;101694.75;;;21.34;65.13
42125;BME280;27787;44.594;11.046;2022-10-16T12:08:51;101688.44;;;21.36;65.67
42125;BME280;27787;44.594;11.046;2022-10-16T12:11:38;101682.19;;;21.36;65.41
42125;BME280;27787;44.594;11.046;2022-10-16T12:14:33;101685.78;;;21.36;64.43
42125;BME280;27787;44.594;11.046;2022-10-16T12:23:02;101683.00;;;21.39;63.80
42125;BME280;27787;44.594;11.046;2022-10-16T12:25:54;101684.84;;;21.37;63.67
42125;BME280;27787;44.594;11.046;2022-10-16T12:28:39;101688.38;;;21.39;63.79
42125;BME280;27787;44.594;11.046;2022-10-16T12:31:37;101686.63;;;21.38;64.18
42125;BME280;27787;44.594;11.046;2022-10-16T12:34:26;101686.56;;;21.40;64.27
42125;BME280;27787;44.594;11.046;2022-10-16T12:37:32;101679.31;;;21.43;63.52
42125;BME280;27787;44.594;11.046;2022-10-16T12:40:28;101680.16;;;21.45;62.66
42125;BME280;27787;44.594;11.046;2022-10-16T12:46:22;101684.78;;;21.77;61.17
42125;BME280;27787;44.594;11.046;2022-10-16T12:49:21;101682.88;;;21.83;61.01
42125;BME280;27787;44.594;11.046;2022-10-16T12:52:25;101682.91;;;21.81;61.76
42125;BME280;27787;44.594;11.046;2022-10-16T12:55:19;101684.66;;;21.82;61.91
42125;BME280;27787;44.594;11.046;2022-10-16T13:07:01;101684.47;;;21.91;60.63
42125;BME280;27787;44.594;11.046;2022-10-16T13:16:30;101685.06;;;22.02;59.28
42125;BME280;27787;44.594;11.046;2022-10-16T13:28:04;101682.06;;;22.16;58.91
42125;BME280;27787;44.594;11.046;2022-10-16T13:30:54;101692.00;;;22.13;58.86
42125;BME280;27787;44.594;11.046;2022-10-16T13:33:41;101698.16;;;22.18;58.43
42125;BME280;27787;44.594;11.046;2022-10-16T13:36:28;101695.38;;;22.21;58.21
42125;BME280;27787;44.594;11.046;2022-10-16T13:42:14;101698.88;;;22.24;58.48
42125;BME280;27787;44.594;11.046;2022-10-16T13:44:59;101702.53;;;22.22;58.48
42125;BME280;27787;44.594;11.046;2022-10-16T13:47:42;101700.84;;;22.18;58.88
42125;BME280;27787;44.594;11.046;2022-10-16T13:50:26;101698.19;;;22.16;58.71
42125;BME280;27787;44.594;11.046;2022-10-16T13:53:14;101702.47;;;22.23;58.76
42125;BME280;27787;44.594;11.046;2022-10-16T13:55:59;101706.00;;;22.27;57.93
42125;BME280;27787;44.594;11.046;2022-10-16T13:58:44;101705.81;;;22.33;56.97
42125;BME280;27787;44.594;11.046;2022-10-16T14:01:34;101699.94;;;22.51;56.85
42125;BME280;27787;44.594;11.046;2022-10-16T14:04:24;101706.06;;;22.58;56.75
42125;BME280;27787;44.594;11.046;2022-10-16T14:07:14;101708.88;;;22.53;57.08
42125;BME280;27787;44.594;11.046;2022-10-16T14:10:18;101707.06;;;22.54;57.72
42125;BME280;27787;44.594;11.046;2022-10-16T14:13:05;101708.09;;;22.48;57.57
42125;BME280;27787;44.594;11.046;2022-10-16T14:15:51;101708.31;;;22.41;57.97
42125;BME280;27787;44.594;11.046;2022-10-16T14:18:37;101710.28;;;22.34;58.31
42125;BME280;27787;44.594;11.046;2022-10-16T14:21:22;101705.88;;;22.31;57.89
42125;BME280;27787;44.594;11.046;2022-10-16T14:24:33;101709.34;;;22.35;57.35
42125;BME280;27787;44.594;11.046;2022-10-16T14:27:34;101703.97;;;22.35;56.95
42125;BME280;27787;44.594;11.046;2022-10-16T14:30:21;101714.50;;;22.44;55.91
42125;BME280;27787;44.594;11.046;2022-10-16T14:33:31;101714.31;;;22.50;55.87
42125;BME280;27787;44.594;11.046;2022-10-16T14:36:17;101709.94;;;22.46;55.94
42125;BME280;27787;44.594;11.046;2022-10-16T14:39:05;101710.88;;;22.45;56.72
42125;BME280;27787;44.594;11.046;2022-10-16T14:41:51;101706.53;;;22.40;57.04
42125;BME280;27787;44.594;11.046;2022-10-16T14:44:36;101714.72;;;22.35;57.51
42125;BME280;27787;44.594;11.046;2022-10-16T14:47:25;101712.13;;;22.32;58.31
42125;BME280;27787;44.594;11.046;2022-10-16T14:50:10;101709.41;;;22.33;57.25
42125;BME280;27787;44.594;11.046;2022-10-16T14:52:54;101709.44;;;22.32;57.20
42125;BME280;27787;44.594;11.046;2022-10-16T14:55:40;101710.28;;;22.34;57.50
42125;BME280;27787;44.594;11.046;2022-10-16T14:58:25;101720.06;;;22.36;57.29
42125;BME280;27787;44.594;11.046;2022-10-16T15:01:10;101707.50;;;22.37;56.86
42125;BME280;27787;44.594;11.046;2022-10-16T15:03:55;101708.47;;;22.34;57.51
42125;BME280;27787;44.594;11.046;2022-10-16T15:06:42;101705.81;;;22.33;57.65
42125;BME280;27787;44.594;11.046;2022-10-16T15:09:29;101718.44;;;22.31;58.33
42125;BME280;27787;44.594;11.046;2022-10-16T15:12:13;101708.69;;;22.25;58.23
42125;BME280;27787;44.594;11.046;2022-10-16T15:14:58;101712.44;;;22.20;58.58
42125;BME280;27787;44.594;11.046;2022-10-16T15:17:42;101713.50;;;22.14;59.25
42125;BME280;27787;44.594;11.046;2022-10-16T15:20:32;101711.78;;;22.10;59.75
42125;BME280;27787;44.594;11.046;2022-10-16T15:23:20;101714.53;;;22.08;59.84
42125;BME280;27787;44.594;11.046;2022-10-16T15:26:04;101714.44;;;22.12;59.95
42125;BME280;27787;44.594;11.046;2022-10-16T15:28:48;101718.00;;;22.14;59.73
42125;BME280;27787;44.594;11.046;2022-10-16T15:31:33;101718.88;;;22.14;60.04
42125;BME280;27787;44.594;11.046;2022-10-16T15:34:17;101718.88;;;22.13;60.26
42125;BME280;27787;44.594;11.046;2022-10-16T15:37:03;101725.28;;;22.08;60.75
42125;BME280;27787;44.594;11.046;2022-10-16T15:39:50;101723.56;;;22.06;60.73
42125;BME280;27787;44.594;11.046;2022-10-16T15:42:34;101718.31;;;21.98;61.46
42125;BME280;27787;44.594;11.046;2022-10-16T15:45:18;101716.63;;;21.94;62.42
42125;BME280;27787;44.594;11.046;2022-10-16T15:48:03;101717.69;;;21.89;62.86
42125;BME280;27787;44.594;11.046;2022-10-16T15:50:47;101725.03;;;21.81;63.87
42125;BME280;27787;44.594;11.046;2022-10-16T15:53:31;101726.06;;;21.75;64.24
42125;BME280;27787;44.594;11.046;2022-10-16T15:56:16;101725.28;;;21.70;64.08
42125;BME280;27787;44.594;11.046;2022-10-16T15:59:00;101722.69;;;21.67;63.96
42125;BME280;27787;44.594;11.046;2022-10-16T16:01:46;101725.41;;;21.65;63.72
42125;BME280;27787;44.594;11.046;2022-10-16T16:04:30;101733.53;;;21.62;63.95